createdAt,value
2022-12-27T00:00:08.898Z,3.01
2022-12-27T00:01:19.221Z,3.00
2022-12-27T00:02:22.489Z,2.95
2022-12-27T00:03:25.589Z,2.97
2022-12-27T00:04:29.065Z,2.98
2022-12-27T00:05:32.194Z,2.97
2022-12-27T00:06:35.433Z,2.98
2022-12-27T00:07:38.680Z,2.93
2022-12-27T00:08:42.165Z,2.91
2022-12-27T00:09:45.286Z,2.92
2022-12-27T00:10:48.399Z,2.88
2022-12-27T00:11:58.012Z,2.87
2022-12-27T00:13:03.166Z,2.93
2022-12-27T00:14:07.729Z,2.94
2022-12-27T00:15:10.967Z,2.92
2022-12-27T00:16:16.777Z,2.98
2022-12-27T00:17:19.970Z,2.98
2022-12-27T00:18:23.211Z,3.00
2022-12-27T00:19:26.348Z,3.05
2022-12-27T00:20:29.454Z,3.07
2022-12-27T00:21:34.025Z,3.11
2022-12-27T00:22:37.254Z,3.14
2022-12-27T00:23:43.381Z,3.18
2022-12-27T00:24:47.341Z,3.18
2022-12-27T00:25:50.582Z,3.17
2022-12-27T00:26:53.824Z,3.21
2022-12-27T00:27:58.028Z,3.23
2022-12-27T00:29:02.118Z,3.20
2022-12-27T00:30:07.153Z,3.20
2022-12-27T00:31:11.062Z,3.20
2022-12-27T00:32:14.352Z,3.15
2022-12-27T00:33:17.372Z,3.13
2022-12-27T00:34:20.731Z,3.10
2022-12-27T00:35:23.727Z,3.09
2022-12-27T00:36:29.361Z,3.10
2022-12-27T00:37:32.365Z,3.05
2022-12-27T00:38:36.329Z,3.11
2022-12-27T00:39:39.087Z,3.06
2022-12-27T00:40:42.806Z,3.07
2022-12-27T00:41:45.506Z,3.09
2022-12-27T00:42:48.210Z,3.10
2022-12-27T00:43:50.921Z,3.10
2022-12-27T00:44:53.545Z,3.08
2022-12-27T00:45:57.311Z,3.07
2022-12-27T00:46:59.861Z,3.05
2022-12-27T00:48:02.426Z,3.08
2022-12-27T00:49:05.309Z,3.06
2022-12-27T00:50:08.677Z,3.09
2022-12-27T00:51:14.796Z,3.16
2022-12-27T00:52:17.511Z,3.18
2022-12-27T00:53:20.027Z,3.20
2022-12-27T00:54:22.710Z,3.25
2022-12-27T00:55:25.231Z,3.27
2022-12-27T00:56:30.117Z,3.33
2022-12-27T00:57:32.673Z,3.27
2022-12-27T00:58:40.537Z,3.27
2022-12-27T00:59:43.563Z,3.31
2022-12-27T01:00:47.295Z,3.28
2022-12-27T01:01:50.134Z,3.24
2022-12-27T01:02:52.723Z,3.25
2022-12-27T01:03:56.331Z,3.23
2022-12-27T01:05:00.036Z,3.21
2022-12-27T01:06:14.299Z,3.24
2022-12-27T01:07:16.975Z,3.23
2022-12-27T01:08:19.480Z,3.21
2022-12-27T01:09:22.098Z,3.21
2022-12-27T01:10:25.005Z,3.21
2022-12-27T01:11:28.607Z,3.21
2022-12-27T01:12:31.222Z,3.19
2022-12-27T01:13:34.253Z,3.19
2022-12-27T01:14:37.012Z,3.19
2022-12-27T01:15:42.415Z,3.18
2022-12-27T01:16:45.120Z,3.15
2022-12-27T01:17:47.805Z,3.18
2022-12-27T01:18:50.812Z,3.19
2022-12-27T01:19:53.328Z,3.17
2022-12-27T01:20:55.849Z,3.15
2022-12-27T01:21:58.496Z,3.15
2022-12-27T01:23:01.009Z,3.12
2022-12-27T01:24:05.932Z,3.14
2022-12-27T01:25:08.929Z,3.13
2022-12-27T01:26:14.339Z,3.18
2022-12-27T01:27:16.860Z,3.12
2022-12-27T01:28:21.182Z,3.12
2022-12-27T01:29:23.937Z,3.17
2022-12-27T01:30:26.458Z,3.21
2022-12-27T01:31:29.597Z,3.22
2022-12-27T01:32:35.467Z,3.25
2022-12-27T01:33:38.342Z,3.19
2022-12-27T01:34:40.863Z,3.19
2022-12-27T01:35:43.499Z,3.20
2022-12-27T01:36:46.027Z,3.21
2022-12-27T01:37:49.261Z,3.20
2022-12-27T01:38:52.080Z,3.20
2022-12-27T01:39:54.905Z,3.20
2022-12-27T01:40:57.670Z,3.22
2022-12-27T01:42:19.028Z,3.19
2022-12-27T01:43:37.391Z,3.28
2022-12-27T01:44:40.155Z,3.25
2022-12-27T01:45:43.442Z,3.24
2022-12-27T01:46:46.281Z,3.22
2022-12-27T01:47:51.677Z,3.20
2022-12-27T01:48:54.919Z,3.21
2022-12-27T01:50:21.802Z,3.24
2022-12-27T01:51:24.565Z,3.20
2022-12-27T01:52:38.997Z,3.24
2022-12-27T01:53:45.086Z,3.21
2022-12-27T01:54:47.731Z,3.19
2022-12-27T01:56:05.611Z,3.26
2022-12-27T01:57:08.369Z,3.22
2022-12-27T01:58:21.703Z,3.29
2022-12-27T01:59:25.656Z,3.24
2022-12-27T02:00:28.423Z,3.27
2022-12-27T02:01:51.271Z,3.30
2022-12-27T02:02:54.446Z,3.28
2022-12-27T02:04:02.745Z,3.35
2022-12-27T02:05:07.067Z,3.30
2022-12-27T02:06:12.593Z,3.30
2022-12-27T02:07:15.709Z,3.29
2022-12-27T02:08:41.754Z,3.35
2022-12-27T02:09:52.674Z,3.36
2022-12-27T02:10:56.042Z,3.34
2022-12-27T02:12:02.163Z,3.36
2022-12-27T02:13:06.842Z,3.37
2022-12-27T02:14:11.520Z,3.36
2022-12-27T02:15:14.643Z,3.35
2022-12-27T02:16:19.891Z,3.36
2022-12-27T02:17:28.935Z,3.37
2022-12-27T02:18:32.050Z,3.32
2022-12-27T02:20:01.332Z,3.32
2022-12-27T02:21:38.172Z,3.32
2022-12-27T02:23:14.534Z,3.30
2022-12-27T02:24:30.979Z,3.28
2022-12-27T02:25:43.939Z,3.27
2022-12-27T02:26:54.991Z,3.27
2022-12-27T02:28:07.825Z,3.26
2022-12-27T02:29:32.209Z,3.22
2022-12-27T02:30:37.394Z,3.19
2022-12-27T02:32:24.028Z,3.19
2022-12-27T02:33:35.071Z,3.14
2022-12-27T02:34:47.795Z,3.16
2022-12-27T02:36:04.234Z,3.15
2022-12-27T02:37:12.039Z,3.11
2022-12-27T02:38:24.282Z,3.09
2022-12-27T02:39:30.046Z,3.05
2022-12-27T02:40:53.083Z,3.05
2022-12-27T02:42:15.533Z,3.05
2022-12-27T02:43:37.008Z,3.04
2022-12-27T02:45:17.573Z,3.05
2022-12-27T02:46:41.749Z,3.02
2022-12-27T02:48:06.421Z,3.03
2022-12-27T02:49:46.017Z,3.06
2022-12-27T02:51:17.939Z,3.07
2022-12-27T02:52:42.310Z,3.02
2022-12-27T02:54:02.896Z,3.09
2022-12-27T02:55:26.717Z,3.08
2022-12-27T02:56:53.635Z,3.06
2022-12-27T02:58:14.519Z,3.11
2022-12-27T02:59:25.993Z,3.10
2022-12-27T03:00:54.438Z,3.07
2022-12-27T03:02:38.169Z,3.11
2022-12-27T03:03:51.598Z,3.18
2022-12-27T03:05:19.918Z,3.25
2022-12-27T03:06:40.214Z,3.30
2022-12-27T03:07:42.615Z,3.28
2022-12-27T03:09:44.889Z,3.46
2022-12-27T03:11:12.336Z,3.50
2022-12-27T03:12:39.243Z,3.61
2022-12-27T03:14:32.859Z,3.62
2022-12-27T03:16:07.124Z,3.65
2022-12-27T03:17:20.287Z,3.64
2022-12-27T03:18:28.466Z,3.65
2022-12-27T03:20:13.211Z,3.68
2022-12-27T03:21:44.990Z,3.71
2022-12-27T03:23:08.306Z,3.73
2022-12-27T03:24:30.975Z,3.68
2022-12-27T03:25:36.132Z,3.69
2022-12-27T03:26:42.387Z,3.68
2022-12-27T03:28:08.778Z,3.63
2022-12-27T03:29:32.061Z,3.61
2022-12-27T03:30:56.455Z,3.59
2022-12-27T03:32:22.721Z,3.61
2022-12-27T03:33:27.618Z,3.60
2022-12-27T03:34:38.538Z,3.64
2022-12-27T03:36:24.022Z,3.66
2022-12-27T03:37:50.312Z,3.58
2022-12-27T03:39:17.795Z,3.59
2022-12-27T03:41:03.647Z,3.59
2022-12-27T03:42:37.357Z,3.55
2022-12-27T03:43:40.708Z,3.47
2022-12-27T03:44:43.613Z,3.43
2022-12-27T03:46:14.121Z,3.43
2022-12-27T03:47:30.273Z,3.37
2022-12-27T03:49:01.120Z,3.43
2022-12-27T03:50:10.840Z,3.45
2022-12-27T03:51:15.214Z,3.43
2022-12-27T03:52:20.101Z,3.46
2022-12-27T03:53:42.644Z,3.43
2022-12-27T03:54:49.123Z,3.45
2022-12-27T03:55:52.125Z,3.37
2022-12-27T03:57:01.028Z,3.39
2022-12-27T03:58:03.773Z,3.33
2022-12-27T03:59:07.851Z,3.37
2022-12-27T04:00:11.333Z,3.36
2022-12-27T04:01:19.250Z,3.32
2022-12-27T04:02:22.186Z,3.29
2022-12-27T04:03:25.594Z,3.31
2022-12-27T04:04:28.751Z,3.31
2022-12-27T04:05:31.383Z,3.33
2022-12-27T04:06:34.147Z,3.33
2022-12-27T04:07:37.143Z,3.39
2022-12-27T04:08:58.280Z,3.41
2022-12-27T04:10:19.626Z,3.48
2022-12-27T04:11:40.992Z,3.53
2022-12-27T04:13:02.471Z,3.55
2022-12-27T04:14:24.196Z,3.53
2022-12-27T04:15:45.945Z,3.56
2022-12-27T04:17:07.527Z,3.54
2022-12-27T04:18:29.008Z,3.55
2022-12-27T04:19:50.604Z,3.54
2022-12-27T04:21:11.974Z,3.57
2022-12-27T04:22:33.571Z,3.52
2022-12-27T04:23:55.172Z,3.52
2022-12-27T04:25:16.773Z,3.55
2022-12-27T04:26:38.378Z,3.61
2022-12-27T04:28:00.339Z,3.67
2022-12-27T04:29:22.177Z,3.68
2022-12-27T04:30:43.781Z,3.70
2022-12-27T04:32:05.504Z,3.70
2022-12-27T04:33:27.467Z,3.69
2022-12-27T04:34:45.832Z,3.71
2022-12-27T04:35:48.952Z,3.72
2022-12-27T04:36:52.073Z,3.71
2022-12-27T04:37:55.314Z,3.75
2022-12-27T04:38:58.435Z,3.75
2022-12-27T04:40:20.037Z,3.77
2022-12-27T04:41:43.085Z,3.82
2022-12-27T04:43:04.683Z,3.82
2022-12-27T04:44:26.526Z,3.81
2022-12-27T04:45:48.007Z,3.86
2022-12-27T04:47:09.377Z,3.85
2022-12-27T04:48:33.010Z,3.92
2022-12-27T04:49:54.373Z,3.89
2022-12-27T04:51:15.629Z,3.88
2022-12-27T04:52:39.385Z,3.90
2022-12-27T04:54:00.681Z,3.84
2022-12-27T04:55:17.666Z,3.85
2022-12-27T04:56:20.237Z,3.76
2022-12-27T04:57:22.946Z,3.77
2022-12-27T04:58:26.065Z,3.77
2022-12-27T04:59:46.952Z,3.71
2022-12-27T05:01:13.856Z,3.77
2022-12-27T05:02:18.559Z,3.68
2022-12-27T05:03:23.833Z,3.69
2022-12-27T05:04:26.603Z,3.66
2022-12-27T05:05:29.332Z,3.66
2022-12-27T05:06:31.880Z,3.62
2022-12-27T05:07:53.441Z,3.66
2022-12-27T05:09:19.943Z,3.67
2022-12-27T05:10:46.965Z,3.69
2022-12-27T05:12:08.003Z,3.61
2022-12-27T05:13:29.855Z,3.64
2022-12-27T05:14:32.247Z,3.55
2022-12-27T05:15:34.767Z,3.54
2022-12-27T05:16:39.695Z,3.55
2022-12-27T05:17:42.208Z,3.52
2022-12-27T05:18:44.848Z,3.53
2022-12-27T05:19:47.368Z,3.53
2022-12-27T05:20:50.490Z,3.53
2022-12-27T05:22:11.714Z,3.48
2022-12-27T05:23:32.851Z,3.48
2022-12-27T05:24:54.088Z,3.48
2022-12-27T05:25:56.740Z,3.48
2022-12-27T05:26:59.397Z,3.48
2022-12-27T05:28:02.980Z,3.51
2022-12-27T05:29:07.053Z,3.50
2022-12-27T05:30:10.335Z,3.53
2022-12-27T05:31:12.992Z,3.52
2022-12-27T05:32:15.695Z,3.54
2022-12-27T05:33:18.463Z,3.53
2022-12-27T05:34:21.221Z,3.52
2022-12-27T05:35:23.986Z,3.56
2022-12-27T05:36:27.460Z,3.54
2022-12-27T05:37:30.099Z,3.51
2022-12-27T05:38:32.619Z,3.50
2022-12-27T05:39:35.174Z,3.55
2022-12-27T05:40:37.807Z,3.58
2022-12-27T05:41:40.443Z,3.60
2022-12-27T05:42:42.956Z,3.60
2022-12-27T05:43:45.590Z,3.63
2022-12-27T05:44:48.101Z,3.66
2022-12-27T05:45:50.629Z,3.64
2022-12-27T05:46:54.799Z,3.72
2022-12-27T05:47:59.170Z,3.72
2022-12-27T05:49:01.787Z,3.68
2022-12-27T05:50:04.789Z,3.71
2022-12-27T05:51:12.711Z,3.72
2022-12-27T05:52:15.359Z,3.75
2022-12-27T05:53:17.875Z,3.73
2022-12-27T05:54:20.400Z,3.76
2022-12-27T05:55:23.038Z,3.78
2022-12-27T05:56:25.698Z,3.76
2022-12-27T05:57:28.328Z,3.82
2022-12-27T05:58:31.445Z,3.80
2022-12-27T05:59:33.963Z,3.88
2022-12-27T06:00:36.613Z,3.86
2022-12-27T06:01:39.215Z,3.87
2022-12-27T06:02:42.728Z,3.90
2022-12-27T06:03:46.255Z,3.85
2022-12-27T06:04:48.733Z,3.84
2022-12-27T06:05:51.380Z,3.81
2022-12-27T06:06:54.152Z,3.83
2022-12-27T06:07:57.028Z,3.80
2022-12-27T06:08:59.900Z,3.80
2022-12-27T06:10:04.106Z,3.88
2022-12-27T06:11:11.185Z,3.90
2022-12-27T06:12:13.962Z,3.86
2022-12-27T06:13:16.839Z,3.84
2022-12-27T06:14:19.838Z,3.81
2022-12-27T06:15:22.845Z,3.86
2022-12-27T06:16:25.969Z,3.84
2022-12-27T06:17:29.077Z,3.87
2022-12-27T06:18:35.200Z,3.94
2022-12-27T06:19:38.919Z,3.84
2022-12-27T06:20:42.041Z,3.86
2022-12-27T06:21:45.167Z,3.85
2022-12-27T06:22:48.893Z,3.83
2022-12-27T06:23:52.013Z,3.78
2022-12-27T06:24:55.249Z,3.75
2022-12-27T06:25:58.371Z,3.72
2022-12-27T06:27:01.499Z,3.67
2022-12-27T06:28:04.615Z,3.64
2022-12-27T06:29:07.745Z,3.63
2022-12-27T06:30:12.653Z,3.63
2022-12-27T06:31:16.765Z,3.62
2022-12-27T06:32:19.978Z,3.62
2022-12-27T06:33:23.101Z,3.60
2022-12-27T06:34:26.223Z,3.61
2022-12-27T06:35:29.463Z,3.56
2022-12-27T06:36:32.946Z,3.56
2022-12-27T06:37:36.072Z,3.58
2022-12-27T06:38:39.670Z,3.55
2022-12-27T06:39:42.671Z,3.51
2022-12-27T06:40:46.032Z,3.49
2022-12-27T06:41:50.968Z,3.49
2022-12-27T06:42:54.080Z,3.53
2022-12-27T06:43:58.543Z,3.54
2022-12-27T06:45:01.761Z,3.55
2022-12-27T06:46:16.774Z,3.62
2022-12-27T06:47:21.575Z,3.62
2022-12-27T06:48:25.164Z,3.66
2022-12-27T06:49:28.414Z,3.68
2022-12-27T06:50:31.652Z,3.68
2022-12-27T06:51:34.772Z,3.69
2022-12-27T06:52:37.660Z,3.74
2022-12-27T06:53:41.493Z,3.72
2022-12-27T06:54:44.258Z,3.74
2022-12-27T06:55:47.030Z,3.70
2022-12-27T06:56:49.726Z,3.73
2022-12-27T06:57:52.664Z,3.68
2022-12-27T06:58:55.609Z,3.66
2022-12-27T06:59:58.183Z,3.60
2022-12-27T07:01:15.717Z,3.63
2022-12-27T07:02:19.847Z,3.53
2022-12-27T07:03:22.475Z,3.54
2022-12-27T07:04:25.124Z,3.54
2022-12-27T07:05:27.641Z,3.58
2022-12-27T07:06:31.607Z,3.59
2022-12-27T07:07:34.251Z,3.59
2022-12-27T07:08:36.955Z,3.55
2022-12-27T07:09:39.529Z,3.56
2022-12-27T07:10:42.168Z,3.57
2022-12-27T07:11:45.646Z,3.54
2022-12-27T07:12:48.284Z,3.53
2022-12-27T07:13:53.329Z,3.56
2022-12-27T07:14:55.973Z,3.52
2022-12-27T07:15:58.491Z,3.50
2022-12-27T07:17:01.007Z,3.58
2022-12-27T07:18:03.535Z,3.56
2022-12-27T07:19:06.062Z,3.55
2022-12-27T07:20:09.177Z,3.56
2022-12-27T07:21:18.172Z,3.54
2022-12-27T07:22:20.784Z,3.50
2022-12-27T07:23:23.360Z,3.45
2022-12-27T07:24:25.949Z,3.41
2022-12-27T07:25:28.493Z,3.41
2022-12-27T07:26:31.132Z,3.45
2022-12-27T07:27:34.598Z,3.49
2022-12-27T07:28:38.379Z,3.49
2022-12-27T07:29:45.488Z,3.46
2022-12-27T07:30:48.419Z,3.51
2022-12-27T07:31:51.124Z,3.44
2022-12-27T07:32:53.580Z,3.42
2022-12-27T07:33:57.425Z,3.43
2022-12-27T07:35:00.194Z,3.46
2022-12-27T07:36:03.419Z,3.45
2022-12-27T07:37:06.428Z,3.48
2022-12-27T07:38:08.965Z,3.48
2022-12-27T07:39:12.428Z,3.49
2022-12-27T07:40:14.949Z,3.49
2022-12-27T07:41:18.066Z,3.47
2022-12-27T07:42:20.584Z,3.48
2022-12-27T07:43:24.189Z,3.46
2022-12-27T07:44:26.713Z,3.49
2022-12-27T07:45:29.262Z,3.48
2022-12-27T07:46:33.069Z,3.52
2022-12-27T07:47:35.583Z,3.52
2022-12-27T07:48:38.479Z,3.47
2022-12-27T07:49:41.063Z,3.48
2022-12-27T07:50:43.640Z,3.48
2022-12-27T07:51:46.174Z,3.45
2022-12-27T07:52:48.672Z,3.45
2022-12-27T07:53:51.799Z,3.46
2022-12-27T07:54:54.317Z,3.44
2022-12-27T07:55:57.197Z,3.47
2022-12-27T07:57:00.319Z,3.45
2022-12-27T07:58:02.844Z,3.49
2022-12-27T07:59:05.486Z,3.51
2022-12-27T08:00:08.841Z,3.54
2022-12-27T08:01:16.388Z,3.59
2022-12-27T08:02:19.152Z,3.64
2022-12-27T08:03:21.846Z,3.71
2022-12-27T08:04:24.688Z,3.78
2022-12-27T08:05:28.030Z,3.88
2022-12-27T08:06:34.412Z,4.00
2022-12-27T08:07:38.613Z,4.01
2022-12-27T08:08:43.777Z,4.04
2022-12-27T08:09:48.826Z,4.15
2022-12-27T08:10:51.465Z,4.16
2022-12-27T08:11:54.103Z,4.26
2022-12-27T08:12:56.746Z,4.28
2022-12-27T08:14:00.489Z,4.34
2022-12-27T08:15:03.233Z,4.40
2022-12-27T08:16:06.854Z,4.37
2022-12-27T08:17:20.513Z,4.41
2022-12-27T08:18:23.630Z,4.36
2022-12-27T08:19:26.633Z,4.39
2022-12-27T08:20:29.874Z,4.38
2022-12-27T08:21:32.994Z,4.36
2022-12-27T08:22:37.200Z,4.40
2022-12-27T08:23:40.801Z,4.51
2022-12-27T08:24:44.403Z,4.51
2022-12-27T08:25:49.104Z,4.53
2022-12-27T08:26:52.325Z,4.68
2022-12-27T08:28:16.453Z,4.84
2022-12-27T08:29:19.689Z,4.91
2022-12-27T08:30:22.930Z,4.99
2022-12-27T08:31:26.066Z,4.99
2022-12-27T08:32:29.182Z,5.12
2022-12-27T08:33:32.300Z,5.29
2022-12-27T08:34:35.574Z,5.39
2022-12-27T08:35:53.567Z,5.57
2022-12-27T08:36:57.475Z,5.55
2022-12-27T08:38:03.623Z,5.56
2022-12-27T08:39:07.707Z,5.45
2022-12-27T08:40:11.191Z,5.37
2022-12-27T08:41:14.310Z,5.44
2022-12-27T08:42:17.431Z,5.33
2022-12-27T08:43:20.555Z,5.40
2022-12-27T08:44:24.307Z,5.63
2022-12-27T08:45:27.278Z,5.72
2022-12-27T08:46:30.819Z,5.91
2022-12-27T08:47:34.000Z,6.01
2022-12-27T08:48:38.226Z,6.09
2022-12-27T08:49:41.444Z,6.23
2022-12-27T08:50:44.567Z,6.51
2022-12-27T08:51:47.929Z,6.75
2022-12-27T08:52:51.050Z,7.11
2022-12-27T08:53:54.168Z,7.28
2022-12-27T08:54:57.412Z,7.26
2022-12-27T08:56:00.664Z,7.51
2022-12-27T08:57:03.548Z,7.83
2022-12-27T08:58:15.484Z,7.61
2022-12-27T08:59:19.023Z,7.82
2022-12-27T09:00:21.777Z,8.11
2022-12-27T09:01:26.131Z,8.25
2022-12-27T09:02:28.940Z,8.38
2022-12-27T09:03:31.797Z,8.25
2022-12-27T09:04:34.510Z,8.38
2022-12-27T09:05:41.624Z,8.74
2022-12-27T09:06:44.882Z,8.97
2022-12-27T09:07:48.191Z,9.10
2022-12-27T09:08:52.284Z,8.83
2022-12-27T09:09:54.962Z,9.14
2022-12-27T09:10:57.493Z,9.11
2022-12-27T09:12:03.102Z,9.06
2022-12-27T09:13:10.931Z,8.87
2022-12-27T09:14:13.691Z,9.03
2022-12-27T09:15:16.806Z,9.11
2022-12-27T09:16:21.719Z,9.01
2022-12-27T09:17:24.247Z,9.56
2022-12-27T09:18:26.896Z,9.34
2022-12-27T09:19:29.412Z,9.34
2022-12-27T09:20:32.062Z,9.41
2022-12-27T09:21:34.954Z,9.71
2022-12-27T09:22:37.419Z,9.52
2022-12-27T09:23:41.859Z,9.69
2022-12-27T09:24:44.411Z,9.71
2022-12-27T09:25:47.909Z,9.98
2022-12-27T09:26:50.531Z,9.68
2022-12-27T09:27:53.145Z,9.65
2022-12-27T09:28:56.389Z,9.76
2022-12-27T09:29:58.936Z,9.61
2022-12-27T09:31:01.758Z,9.76
2022-12-27T09:32:04.559Z,10.20
2022-12-27T09:33:07.192Z,10.44
2022-12-27T09:34:12.666Z,10.52
2022-12-27T09:35:15.381Z,10.45
2022-12-27T09:36:21.021Z,10.46
2022-12-27T09:37:23.925Z,10.55
2022-12-27T09:38:26.429Z,10.49
2022-12-27T09:39:29.425Z,10.56
2022-12-27T09:40:31.942Z,10.60
2022-12-27T09:43:25.436Z,10.29
2022-12-27T09:44:42.151Z,10.03
2022-12-27T09:45:49.224Z,9.79
2022-12-27T09:46:57.756Z,9.70
2022-12-27T09:48:14.188Z,9.60
2022-12-27T09:49:31.473Z,9.10
2022-12-27T09:50:42.282Z,9.10
2022-12-27T09:51:52.477Z,9.08
2022-12-27T09:53:17.371Z,9.00
2022-12-27T09:54:26.081Z,9.13
2022-12-27T09:55:43.601Z,8.94
2022-12-27T09:57:18.339Z,9.02
2022-12-27T09:58:34.270Z,9.44
2022-12-27T09:59:42.517Z,9.96
2022-12-27T10:00:50.800Z,9.63
2022-12-27T10:01:53.631Z,9.49
2022-12-27T10:02:58.482Z,9.86
2022-12-27T10:04:01.975Z,10.13
2022-12-27T10:05:21.734Z,10.03
2022-12-27T10:06:49.248Z,10.26
2022-12-27T10:08:08.334Z,10.56
2022-12-27T10:09:42.895Z,11.22
2022-12-27T10:11:01.495Z,11.52
2022-12-27T10:12:31.586Z,11.69
2022-12-27T10:13:53.465Z,11.60
2022-12-27T10:15:04.981Z,11.22
2022-12-27T10:16:18.447Z,11.01
2022-12-27T10:17:59.232Z,11.02
2022-12-27T10:19:29.588Z,10.77
2022-12-27T10:20:53.719Z,10.37
2022-12-27T10:22:04.275Z,11.06
2022-12-27T10:23:12.927Z,11.49
2022-12-27T10:24:26.836Z,11.56
2022-12-27T10:25:31.286Z,11.81
2022-12-27T10:26:34.282Z,11.99
2022-12-27T10:27:38.491Z,11.38
2022-12-27T10:28:47.128Z,12.14
2022-12-27T10:29:53.968Z,12.31
2022-12-27T10:31:01.465Z,12.30
2022-12-27T10:32:04.656Z,12.48
2022-12-27T10:33:19.775Z,12.76
2022-12-27T10:34:24.860Z,13.07
2022-12-27T10:35:29.494Z,13.85
2022-12-27T10:36:33.216Z,13.93
2022-12-27T10:37:36.352Z,14.30
2022-12-27T10:38:40.066Z,13.71
2022-12-27T10:39:43.670Z,13.98
2022-12-27T10:41:03.704Z,14.12
2022-12-27T10:42:34.909Z,13.40
2022-12-27T10:43:42.709Z,13.71
2022-12-27T10:44:45.951Z,13.33
2022-12-27T10:45:49.683Z,13.59
2022-12-27T10:46:56.167Z,13.47
2022-12-27T10:48:21.116Z,14.19
2022-12-27T10:49:28.809Z,13.33
2022-12-27T10:50:32.039Z,13.63
2022-12-27T10:51:40.923Z,13.37
2022-12-27T10:52:44.651Z,13.14
2022-12-27T10:53:48.006Z,13.47
2022-12-27T10:54:57.843Z,13.71
2022-12-27T10:56:28.449Z,13.69
2022-12-27T10:57:36.741Z,13.88
2022-12-27T10:58:48.400Z,13.91
2022-12-27T11:00:28.483Z,14.04
2022-12-27T11:01:35.570Z,13.71
2022-12-27T11:02:50.290Z,13.97
2022-12-27T11:04:08.427Z,14.18
2022-12-27T11:05:21.142Z,13.73
2022-12-27T11:06:26.549Z,14.65
2022-12-27T11:07:34.950Z,14.53
2022-12-27T11:08:38.069Z,13.41
2022-12-27T11:09:50.357Z,13.00
2022-12-27T11:11:19.845Z,13.33
2022-12-27T11:12:32.292Z,13.46
2022-12-27T11:13:34.836Z,13.59
2022-12-27T11:14:37.466Z,13.39
2022-12-27T11:15:44.811Z,13.32
2022-12-27T11:16:49.225Z,12.54
2022-12-27T11:17:58.982Z,12.02
2022-12-27T11:19:02.332Z,12.13
2022-12-27T11:20:31.916Z,12.16
2022-12-27T11:21:40.293Z,12.06
2022-12-27T11:22:46.651Z,12.04
2022-12-27T11:24:02.284Z,11.73
2022-12-27T11:25:05.321Z,11.06
2022-12-27T11:26:08.232Z,10.44
2022-12-27T11:27:22.429Z,10.42
2022-12-27T11:28:38.529Z,10.02
2022-12-27T11:29:45.584Z,10.20
2022-12-27T11:31:05.557Z,9.88
2022-12-27T11:32:09.307Z,9.65
2022-12-27T11:33:25.116Z,9.89
2022-12-27T11:34:36.322Z,10.09
2022-12-27T11:35:46.664Z,10.47
2022-12-27T11:36:51.219Z,10.65
2022-12-27T11:37:53.984Z,10.47
2022-12-27T11:38:56.874Z,10.44
2022-12-27T11:40:22.665Z,10.29
2022-12-27T11:41:34.298Z,10.55
2022-12-27T11:42:43.306Z,10.41
2022-12-27T11:43:48.705Z,10.52
2022-12-27T11:45:03.705Z,10.26
2022-12-27T11:46:13.915Z,9.94
2022-12-27T11:47:33.228Z,9.68
2022-12-27T11:48:42.248Z,9.14
2022-12-27T11:50:03.611Z,8.80
2022-12-27T11:51:21.350Z,8.74
2022-12-27T11:52:39.832Z,9.20
2022-12-27T11:54:08.515Z,9.33
2022-12-27T11:55:56.754Z,9.57
2022-12-27T11:57:07.444Z,9.04
2022-12-27T11:58:54.245Z,8.83
2022-12-27T12:00:18.716Z,8.71
2022-12-27T12:01:48.577Z,8.51
2022-12-27T12:03:35.607Z,8.36
2022-12-27T12:05:05.646Z,8.24
2022-12-27T12:06:27.830Z,8.35
2022-12-27T12:07:36.869Z,8.22
2022-12-27T12:09:21.132Z,8.13
2022-12-27T12:10:48.849Z,8.23
2022-12-27T12:12:24.373Z,8.39
2022-12-27T12:13:48.015Z,8.08
2022-12-27T12:14:58.952Z,8.30
2022-12-27T12:16:40.879Z,8.39
2022-12-27T12:18:04.942Z,9.13
2022-12-27T12:19:21.875Z,9.96
2022-12-27T12:20:50.358Z,11.10
2022-12-27T12:22:30.748Z,11.90
2022-12-27T12:23:51.880Z,12.63
2022-12-27T12:25:13.604Z,12.53
2022-12-27T12:26:25.475Z,13.00
2022-12-27T12:28:55.711Z,12.72
2022-12-27T12:30:12.783Z,12.07
2022-12-27T12:31:49.801Z,11.76
2022-12-27T12:32:59.926Z,11.66
2022-12-27T12:34:09.290Z,11.70
2022-12-27T12:35:47.451Z,10.88
2022-12-27T12:37:27.775Z,10.84
2022-12-27T12:38:50.696Z,10.95
2022-12-27T12:40:47.592Z,10.76
2022-12-27T12:42:06.066Z,10.93
2022-12-27T12:43:21.061Z,10.87
2022-12-27T12:44:41.263Z,11.20
2022-12-27T12:45:53.306Z,10.75
2022-12-27T12:47:13.390Z,10.31
2022-12-27T12:48:34.272Z,10.03
2022-12-27T12:49:51.313Z,9.85
2022-12-27T12:51:21.916Z,9.75
2022-12-27T12:52:30.686Z,9.48
2022-12-27T12:54:11.132Z,10.08
2022-12-27T12:55:42.213Z,10.08
2022-12-27T12:57:03.932Z,10.16
2022-12-27T12:58:13.305Z,10.77
2022-12-27T12:59:34.810Z,10.54
2022-12-27T13:00:40.776Z,10.52
2022-12-27T13:02:02.072Z,10.38
2022-12-27T13:03:16.143Z,10.47
2022-12-27T13:04:31.417Z,10.53
2022-12-27T13:05:34.670Z,10.63
2022-12-27T13:06:44.382Z,10.51
2022-12-27T13:08:06.583Z,10.63
2022-12-27T13:09:26.744Z,10.86
2022-12-27T13:10:57.949Z,10.45
2022-12-27T13:12:28.793Z,10.53
2022-12-27T13:13:59.154Z,10.46
2022-12-27T13:15:13.673Z,10.10
2022-12-27T13:16:43.347Z,9.94
2022-12-27T13:18:00.887Z,10.00
2022-12-27T13:19:30.647Z,9.85
2022-12-27T13:20:55.494Z,9.93
2022-12-27T13:22:22.011Z,9.82
2022-12-27T13:23:46.262Z,9.66
2022-12-27T13:25:11.053Z,9.52
2022-12-27T13:26:19.732Z,9.30
2022-12-27T13:27:43.155Z,9.22
2022-12-27T13:29:00.894Z,9.09
2022-12-27T13:30:16.252Z,9.00
2022-12-27T13:31:55.472Z,8.89
2022-12-27T13:33:27.188Z,8.74
2022-12-27T13:34:54.419Z,8.41
2022-12-27T13:36:11.464Z,8.38
2022-12-27T13:37:32.341Z,8.09
2022-12-27T13:39:09.783Z,8.15
2022-12-27T13:40:24.277Z,8.03
2022-12-27T13:41:36.063Z,7.92
2022-12-27T13:43:09.909Z,7.98
2022-12-27T13:44:32.598Z,7.94
2022-12-27T13:46:03.012Z,7.85
2022-12-27T13:47:20.226Z,7.61
2022-12-27T13:48:56.947Z,7.49
2022-12-27T13:50:45.672Z,7.38
2022-12-27T13:51:52.156Z,7.32
2022-12-27T13:53:50.360Z,7.35
2022-12-27T13:55:11.866Z,7.36
2022-12-27T13:56:52.922Z,7.31
2022-12-27T13:58:00.441Z,7.19
2022-12-27T13:59:21.083Z,7.32
2022-12-27T14:00:24.917Z,7.25
2022-12-27T14:01:30.426Z,7.32
2022-12-27T14:02:49.780Z,7.21
2022-12-27T14:04:05.597Z,7.26
2022-12-27T14:05:26.003Z,7.20
2022-12-27T14:06:37.436Z,7.20
2022-12-27T14:08:11.271Z,7.19
2022-12-27T14:09:25.650Z,7.05
2022-12-27T14:10:39.819Z,7.09
2022-12-27T14:12:12.448Z,7.15
2022-12-27T14:13:22.775Z,7.11
2022-12-27T14:14:27.455Z,7.04
2022-12-27T14:16:08.809Z,7.02
2022-12-27T14:17:20.136Z,6.98
2022-12-27T14:18:40.898Z,6.89
2022-12-27T14:20:04.420Z,6.92
2022-12-27T14:21:26.022Z,6.79
2022-12-27T14:22:57.947Z,6.81
2022-12-27T14:24:20.636Z,6.83
2022-12-27T14:25:59.872Z,6.80
2022-12-27T14:27:53.281Z,6.69
2022-12-27T14:29:13.929Z,6.69
2022-12-27T14:30:31.923Z,6.76
2022-12-27T14:32:01.445Z,6.69
2022-12-27T14:33:23.167Z,6.60
2022-12-27T14:35:00.201Z,6.69
2022-12-27T14:36:30.852Z,6.64
2022-12-27T14:38:12.249Z,6.53
2022-12-27T14:39:26.060Z,6.56
2022-12-27T14:40:38.055Z,6.43
2022-12-27T14:42:17.058Z,6.47
2022-12-27T14:43:55.461Z,6.46
2022-12-27T14:45:23.902Z,6.35
2022-12-27T14:47:01.949Z,6.23
2022-12-27T14:48:41.801Z,6.26
2022-12-27T14:50:08.437Z,6.22
2022-12-27T14:51:58.253Z,6.14
2022-12-27T14:53:11.554Z,6.18
2022-12-27T14:54:40.359Z,6.08
2022-12-27T14:55:55.726Z,6.06
2022-12-27T14:57:13.003Z,6.02
2022-12-27T14:58:37.844Z,5.96
2022-12-27T14:59:52.844Z,5.98
2022-12-27T15:01:24.329Z,5.94
2022-12-27T15:02:45.902Z,5.87
2022-12-27T15:04:23.236Z,5.89
2022-12-27T15:05:42.585Z,5.85
2022-12-27T15:06:55.813Z,5.81
2022-12-27T15:08:07.742Z,5.81
2022-12-27T15:09:33.311Z,5.77
2022-12-27T15:11:00.789Z,5.76
2022-12-27T15:12:13.387Z,5.71
2022-12-27T15:13:27.674Z,5.68
2022-12-27T15:15:02.482Z,5.68
2022-12-27T15:16:26.375Z,5.64
2022-12-27T15:18:06.197Z,5.63
2022-12-27T15:19:44.959Z,5.64
2022-12-27T15:20:56.306Z,5.50
2022-12-27T15:22:01.767Z,5.51
2022-12-27T15:23:30.611Z,5.50
2022-12-27T15:25:03.467Z,5.47
2022-12-27T15:26:27.572Z,5.45
2022-12-27T15:27:35.010Z,5.42
2022-12-27T15:28:51.217Z,5.45
2022-12-27T15:30:10.584Z,5.42
2022-12-27T15:31:29.550Z,5.41
2022-12-27T15:32:59.981Z,5.43
2022-12-27T15:34:20.538Z,5.45
2022-12-27T15:35:55.185Z,5.39
2022-12-27T15:36:57.866Z,5.40
2022-12-27T15:38:07.717Z,5.49
2022-12-27T15:39:34.710Z,5.48
2022-12-27T15:40:52.796Z,5.51
2022-12-27T15:42:31.653Z,5.49
2022-12-27T15:43:57.504Z,5.45
2022-12-27T15:45:16.947Z,5.52
2022-12-27T15:46:52.019Z,5.51
2022-12-27T15:48:00.268Z,5.47
2022-12-27T15:49:15.157Z,5.47
2022-12-27T15:50:36.157Z,5.49
2022-12-27T15:51:57.157Z,5.47
2022-12-27T15:53:44.800Z,5.45
2022-12-27T15:55:05.315Z,5.37
2022-12-27T15:56:13.594Z,5.32
2022-12-27T15:57:16.117Z,5.29